Terminal Aerodrome Forecast
Issued by NWS

Home | Current Version | Previous Version | Text Only | Print | Product List | Glossary On
Versions: 1 2 3 4 5 6 7 8 9 10 11 12 13 14 15 16
000
FTUS43 KGRR 060550
TAFJXN
TAF
KJXN 060550Z 0606/0706 16005KT P6SM SKC
     FM061000 VRB03KT 3SM BR SKC
     FM061400 20010G17KT P6SM SKC
     FM070300 19007KT P6SM OVC200=

USA.gov is the U.S. government's official web portal to all federal, state and local government web resources and services.